Snoqualmie, Washington
Current Conditions -  °F | °C
As of 1:53 PM on Monday 20 Oct 2014 (Local Time) from KRNT Reporting Station
Light Rain Light Rain  
Wind Chill: 60°   Ceiling: 5000
Heat Index: 60°   Visibility: 4mi
Dew Point: 56°   Wind: 6mph
Humidity: 86%   Direction: 130°SE
Pressure: 29.76"   Gusts: NA
Location:  47.53°N, 121.83°W
Report Text: KRNT 202053Z 13005KT 4SM -RA BR FEW019 BKN050 OVC070 16/13 A2976 RMK AO2 RAB1954E05B27 SLP082 P0002 60002 T01560133 55003
Loading
Personal Weather Stations






























Interactive Weather Map
Tropical Storm Tracking
New forecast layout! Learn more

10-Day Weather Forecast

Advertisements
Track Severe Weather on mobile